sensor_id;sensor_type;location;lat;lon;timestamp;pressure;altitude;pressure_sealevel;temperature;humidity
73748;BME280;62056;52.130;5.428;2023-06-01T00:01:22;102677.34;;;12.67;71.50
73748;BME280;62056;52.130;5.428;2023-06-01T00:03:51;102678.81;;;12.52;71.96
73748;BME280;62056;52.130;5.428;2023-06-01T00:06:18;102672.38;;;12.48;71.67
73748;BME280;62056;52.130;5.428;2023-06-01T00:08:50;102672.41;;;12.53;71.34
73748;BME280;62056;52.130;5.428;2023-06-01T00:11:22;102678.56;;;12.54;70.83
73748;BME280;62056;52.130;5.428;2023-06-01T00:13:49;102663.56;;;12.48;71.38
73748;BME280;62056;52.130;5.428;2023-06-01T00:16:17;102654.72;;;12.42;72.93
73748;BME280;62056;52.130;5.428;2023-06-01T00:18:46;102669.63;;;12.38;71.75
73748;BME280;62056;52.130;5.428;2023-06-01T00:21:13;102666.97;;;12.38;72.15
73748;BME280;62056;52.130;5.428;2023-06-01T00:23:40;102662.22;;;12.45;71.23
73748;BME280;62056;52.130;5.428;2023-06-01T00:26:07;102663.75;;;12.36;72.32
73748;BME280;62056;52.130;5.428;2023-06-01T00:28:38;102657.88;;;12.39;72.12
73748;BME280;62056;52.130;5.428;2023-06-01T00:31:13;102658.97;;;12.38;71.56
73748;BME280;62056;52.130;5.428;2023-06-01T00:34:01;102654.72;;;12.42;71.88
73748;BME280;62056;52.130;5.428;2023-06-01T00:36:30;102661.16;;;12.46;71.28
73748;BME280;62056;52.130;5.428;2023-06-01T00:39:00;102659.25;;;12.42;72.26
73748;BME280;62056;52.130;5.428;2023-06-01T00:41:32;102652.53;;;12.34;73.32
73748;BME280;62056;52.130;5.428;2023-06-01T00:43:59;102665.06;;;12.33;72.38
73748;BME280;62056;52.130;5.428;2023-06-01T00:46:29;102659.50;;;12.40;71.92
73748;BME280;62056;52.130;5.428;2023-06-01T00:49:29;102655.53;;;12.43;72.05
73748;BME280;62056;52.130;5.428;2023-06-01T00:52:01;102659.84;;;12.49;70.66
73748;BME280;62056;52.130;5.428;2023-06-01T00:54:30;102661.41;;;12.45;70.74
73748;BME280;62056;52.130;5.428;2023-06-01T00:56:56;102661.97;;;12.47;70.72
73748;BME280;62056;52.130;5.428;2023-06-01T00:59:23;102668.41;;;12.51;71.38
73748;BME280;62056;52.130;5.428;2023-06-01T01:01:50;102663.56;;;12.48;70.49
73748;BME280;62056;52.130;5.428;2023-06-01T01:04:20;102655.56;;;12.48;70.59
73748;BME280;62056;52.130;5.428;2023-06-01T01:09:40;102653.19;;;12.51;69.76
73748;BME280;62056;52.130;5.428;2023-06-01T01:15:04;102660.16;;;12.52;70.15
73748;BME280;62056;52.130;5.428;2023-06-01T01:18:03;102655.38;;;12.54;70.90
73748;BME280;62056;52.130;5.428;2023-06-01T01:20:37;102662.00;;;12.52;71.84
73748;BME280;62056;52.130;5.428;2023-06-01T01:23:15;102660.06;;;12.42;71.28
73748;BME280;62056;52.130;5.428;2023-06-01T01:28:51;102656.75;;;12.30;71.71
73748;BME280;62056;52.130;5.428;2023-06-01T01:31:24;102652.28;;;12.35;71.41
73748;BME280;62056;52.130;5.428;2023-06-01T01:33:54;102652.06;;;12.42;71.49
73748;BME280;62056;52.130;5.428;2023-06-01T01:36:23;102657.34;;;12.37;71.58
73748;BME280;62056;52.130;5.428;2023-06-01T01:38:50;102652.19;;;12.25;72.01
73748;BME280;62056;52.130;5.428;2023-06-01T01:41:20;102659.31;;;12.20;71.89
73748;BME280;62056;52.130;5.428;2023-06-01T01:43:51;102657.63;;;12.08;72.32
73748;BME280;62056;52.130;5.428;2023-06-01T01:46:23;102656.88;;;12.13;72.71
73748;BME280;62056;52.130;5.428;2023-06-01T01:49:18;102666.13;;;12.05;73.62
73748;BME280;62056;52.130;5.428;2023-06-01T01:51:57;102659.53;;;12.13;72.93
73748;BME280;62056;52.130;5.428;2023-06-01T01:54:29;102660.09;;;12.15;73.07
73748;BME280;62056;52.130;5.428;2023-06-01T01:56:58;102659.00;;;12.16;72.31
73748;BME280;62056;52.130;5.428;2023-06-01T01:59:27;102655.34;;;12.22;72.19
73748;BME280;62056;52.130;5.428;2023-06-01T02:01:54;102647.88;;;12.24;71.90
73748;BME280;62056;52.130;5.428;2023-06-01T02:04:22;102647.00;;;12.13;72.38
73748;BME280;62056;52.130;5.428;2023-06-01T02:06:49;102647.09;;;11.97;73.49
73748;BME280;62056;52.130;5.428;2023-06-01T02:09:16;102644.28;;;11.86;74.40
73748;BME280;62056;52.130;5.428;2023-06-01T02:11:43;102644.78;;;11.83;74.06
73748;BME280;62056;52.130;5.428;2023-06-01T02:14:10;102646.38;;;11.79;74.37
73748;BME280;62056;52.130;5.428;2023-06-01T02:16:37;102646.84;;;11.76;73.73
73748;BME280;62056;52.130;5.428;2023-06-01T02:19:03;102651.69;;;11.79;73.89
73748;BME280;62056;52.130;5.428;2023-06-01T02:21:31;102649.28;;;11.78;73.35
73748;BME280;62056;52.130;5.428;2023-06-01T02:23:58;102645.06;;;11.82;72.86
73748;BME280;62056;52.130;5.428;2023-06-01T02:26:31;102646.72;;;11.88;73.09
73748;BME280;62056;52.130;5.428;2023-06-01T02:28:58;102632.91;;;11.91;72.33
73748;BME280;62056;52.130;5.428;2023-06-01T02:31:25;102648.41;;;11.94;72.08
73748;BME280;62056;52.130;5.428;2023-06-01T02:33:52;102643.56;;;11.91;71.83
73748;BME280;62056;52.130;5.428;2023-06-01T02:36:19;102641.97;;;11.90;71.85
73748;BME280;62056;52.130;5.428;2023-06-01T02:38:46;102641.69;;;11.91;72.40
73748;BME280;62056;52.130;5.428;2023-06-01T02:41:12;102644.13;;;11.93;72.13
73748;BME280;62056;52.130;5.428;2023-06-01T02:43:39;102640.69;;;11.98;72.14
73748;BME280;62056;52.130;5.428;2023-06-01T02:46:11;102641.81;;;12.02;71.70
73748;BME280;62056;52.130;5.428;2023-06-01T02:48:39;102641.56;;;12.03;71.38
73748;BME280;62056;52.130;5.428;2023-06-01T02:51:06;102637.03;;;12.04;71.67
73748;BME280;62056;52.130;5.428;2023-06-01T02:53:33;102645.34;;;12.07;71.46
73748;BME280;62056;52.130;5.428;2023-06-01T02:56:00;102648.53;;;12.04;71.31
73748;BME280;62056;52.130;5.428;2023-06-01T02:58:27;102643.56;;;11.91;72.45
73748;BME280;62056;52.130;5.428;2023-06-01T03:00:56;102642.03;;;11.73;73.52
73748;BME280;62056;52.130;5.428;2023-06-01T03:03:25;102640.53;;;11.60;73.27
73748;BME280;62056;52.130;5.428;2023-06-01T03:05:52;102641.53;;;11.54;73.56
73748;BME280;62056;52.130;5.428;2023-06-01T03:08:22;102641.34;;;11.61;73.27
73748;BME280;62056;52.130;5.428;2023-06-01T03:10:51;102636.63;;;11.68;73.62
73748;BME280;62056;52.130;5.428;2023-06-01T03:13:18;102635.88;;;11.72;73.01
73748;BME280;62056;52.130;5.428;2023-06-01T03:15:48;102631.38;;;11.73;72.37
73748;BME280;62056;52.130;5.428;2023-06-01T03:18:18;102630.84;;;11.76;72.76
73748;BME280;62056;52.130;5.428;2023-06-01T03:20:50;102632.22;;;11.79;71.84
73748;BME280;62056;52.130;5.428;2023-06-01T03:23:17;102627.16;;;11.77;72.11
73748;BME280;62056;52.130;5.428;2023-06-01T03:25:43;102632.22;;;11.79;72.58
73748;BME280;62056;52.130;5.428;2023-06-01T03:28:11;102637.53;;;11.79;72.67
73748;BME280;62056;52.130;5.428;2023-06-01T03:30:40;102633.84;;;11.80;72.12
73748;BME280;62056;52.130;5.428;2023-06-01T03:33:08;102634.38;;;11.82;72.10
73748;BME280;62056;52.130;5.428;2023-06-01T03:35:35;102625.31;;;11.83;71.88
73748;BME280;62056;52.130;5.428;2023-06-01T03:38:02;102632.75;;;11.81;72.40
73748;BME280;62056;52.130;5.428;2023-06-01T03:40:29;102632.72;;;11.75;72.01
73748;BME280;62056;52.130;5.428;2023-06-01T03:42:55;102630.06;;;11.75;72.46
73748;BME280;62056;52.130;5.428;2023-06-01T03:45:22;102625.28;;;11.78;72.22
73748;BME280;62056;52.130;5.428;2023-06-01T03:47:49;102625.84;;;11.80;71.87
73748;BME280;62056;52.130;5.428;2023-06-01T03:50:15;102626.41;;;11.82;72.66
73748;BME280;62056;52.130;5.428;2023-06-01T03:52:42;102627.19;;;11.82;71.85
73748;BME280;62056;52.130;5.428;2023-06-01T03:55:09;102628.78;;;11.83;72.43
73748;BME280;62056;52.130;5.428;2023-06-01T03:57:37;102626.94;;;11.84;72.20
73748;BME280;62056;52.130;5.428;2023-06-01T04:00:05;102626.13;;;11.83;72.38
73748;BME280;62056;52.130;5.428;2023-06-01T04:02:54;102632.84;;;11.86;72.74
73748;BME280;62056;52.130;5.428;2023-06-01T04:05:22;102635.00;;;11.89;71.87
73748;BME280;62056;52.130;5.428;2023-06-01T04:07:52;102626.53;;;11.92;71.67
73748;BME280;62056;52.130;5.428;2023-06-01T04:10:22;102628.13;;;11.93;72.29
73748;BME280;62056;52.130;5.428;2023-06-01T04:12:50;102631.09;;;11.97;72.38
73748;BME280;62056;52.130;5.428;2023-06-01T04:15:20;102626.25;;;11.93;72.33
73748;BME280;62056;52.130;5.428;2023-06-01T04:17:50;102627.22;;;11.87;72.84
73748;BME280;62056;52.130;5.428;2023-06-01T04:20:17;102621.09;;;11.87;72.92
73748;BME280;62056;52.130;5.428;2023-06-01T04:22:45;102625.88;;;11.85;72.43
73748;BME280;62056;52.130;5.428;2023-06-01T04:25:14;102630.06;;;11.75;74.40
73748;BME280;62056;52.130;5.428;2023-06-01T04:27:49;102635.16;;;11.77;73.93
73748;BME280;62056;52.130;5.428;2023-06-01T04:30:20;102626.63;;;11.80;72.92
73748;BME280;62056;52.130;5.428;2023-06-01T04:32:48;102629.63;;;11.84;73.37
73748;BME280;62056;52.130;5.428;2023-06-01T04:35:16;102643.50;;;11.86;73.25
73748;BME280;62056;52.130;5.428;2023-06-01T04:37:43;102640.34;;;11.89;73.19
73748;BME280;62056;52.130;5.428;2023-06-01T04:40:11;102643.22;;;11.87;72.54
73748;BME280;62056;52.130;5.428;2023-06-01T04:42:40;102645.34;;;11.85;72.71
73748;BME280;62056;52.130;5.428;2023-06-01T04:45:10;102635.50;;;11.86;73.31
73748;BME280;62056;52.130;5.428;2023-06-01T04:47:38;102634.66;;;11.85;72.93
73748;BME280;62056;52.130;5.428;2023-06-01T04:50:08;102635.81;;;11.89;72.86
73748;BME280;62056;52.130;5.428;2023-06-01T04:52:39;102638.25;;;11.91;72.27
73748;BME280;62056;52.130;5.428;2023-06-01T04:55:07;102645.47;;;11.95;72.60
73748;BME280;62056;52.130;5.428;2023-06-01T04:57:37;102637.00;;;11.99;72.32
73748;BME280;62056;52.130;5.428;2023-06-01T05:00:06;102643.38;;;11.98;72.41
73748;BME280;62056;52.130;5.428;2023-06-01T05:02:39;102643.50;;;11.86;73.62
73748;BME280;62056;52.130;5.428;2023-06-01T05:05:07;102646.91;;;11.81;73.42
73748;BME280;62056;52.130;5.428;2023-06-01T05:07:37;102648.47;;;11.77;73.97
73748;BME280;62056;52.130;5.428;2023-06-01T05:10:12;102639.97;;;11.80;73.37
73748;BME280;62056;52.130;5.428;2023-06-01T05:12:43;102639.44;;;11.83;73.61
73748;BME280;62056;52.130;5.428;2023-06-01T05:15:14;102641.38;;;11.88;74.00
73748;BME280;62056;52.130;5.428;2023-06-01T05:17:51;102639.56;;;11.88;73.93
73748;BME280;62056;52.130;5.428;2023-06-01T05:20:21;102644.44;;;11.97;73.00
73748;BME280;62056;52.130;5.428;2023-06-01T05:22:53;102641.25;;;12.00;73.25
73748;BME280;62056;52.130;5.428;2023-06-01T05:25:20;102642.34;;;12.04;73.18
73748;BME280;62056;52.130;5.428;2023-06-01T05:27:50;102651.22;;;12.09;73.57
73748;BME280;62056;52.130;5.428;2023-06-01T05:30:24;102648.06;;;12.12;73.17
73748;BME280;62056;52.130;5.428;2023-06-01T05:32:55;102647.50;;;12.10;73.40
73748;BME280;62056;52.130;5.428;2023-06-01T05:35:32;102650.41;;;12.09;73.37
73748;BME280;62056;52.130;5.428;2023-06-01T05:38:03;102644.31;;;12.13;73.59
73748;BME280;62056;52.130;5.428;2023-06-01T05:40:42;102647.56;;;12.15;73.08
73748;BME280;62056;52.130;5.428;2023-06-01T05:43:11;102645.44;;;12.18;72.83
73748;BME280;62056;52.130;5.428;2023-06-01T05:45:43;102647.09;;;12.24;72.76
73748;BME280;62056;52.130;5.428;2023-06-01T05:48:13;102646.84;;;12.25;72.47
73748;BME280;62056;52.130;5.428;2023-06-01T05:50:41;102654.69;;;12.10;73.08
73748;BME280;62056;52.130;5.428;2023-06-01T05:53:08;102650.66;;;12.07;72.98
73748;BME280;62056;52.130;5.428;2023-06-01T05:55:36;102656.00;;;12.07;73.24
73748;BME280;62056;52.130;5.428;2023-06-01T05:58:02;102653.78;;;11.99;73.69
73748;BME280;62056;52.130;5.428;2023-06-01T06:00:32;102652.66;;;11.95;73.60
73748;BME280;62056;52.130;5.428;2023-06-01T06:03:01;102652.38;;;11.91;73.29
73748;BME280;62056;52.130;5.428;2023-06-01T06:05:28;102661.88;;;11.87;73.94
73748;BME280;62056;52.130;5.428;2023-06-01T06:07:55;102661.31;;;11.85;73.80
73748;BME280;62056;52.130;5.428;2023-06-01T06:10:25;102652.53;;;11.85;73.55
73748;BME280;62056;52.130;5.428;2023-06-01T06:12:52;102653.88;;;11.87;73.65
73748;BME280;62056;52.130;5.428;2023-06-01T06:15:18;102657.13;;;11.89;73.71
73748;BME280;62056;52.130;5.428;2023-06-01T06:17:45;102655.03;;;11.91;73.56
73748;BME280;62056;52.130;5.428;2023-06-01T06:20:17;102654.56;;;12.00;73.35
73748;BME280;62056;52.130;5.428;2023-06-01T06:22:51;102654.69;;;12.10;73.11
73748;BME280;62056;52.130;5.428;2023-06-01T06:25:19;102651.78;;;12.11;73.19
73748;BME280;62056;52.130;5.428;2023-06-01T06:27:46;102657.16;;;12.17;72.97
73748;BME280;62056;52.130;5.428;2023-06-01T06:30:13;102648.13;;;12.23;72.82
73748;BME280;62056;52.130;5.428;2023-06-01T06:32:40;102649.50;;;12.25;72.65
73748;BME280;62056;52.130;5.428;2023-06-01T06:35:10;102647.19;;;12.34;72.83
73748;BME280;62056;52.130;5.428;2023-06-01T06:37:43;102644.84;;;12.43;72.67
73748;BME280;62056;52.130;5.428;2023-06-01T06:40:13;102646.19;;;12.45;72.65
73748;BME280;62056;52.130;5.428;2023-06-01T06:42:40;102645.44;;;12.50;72.97
73748;BME280;62056;52.130;5.428;2023-06-01T06:45:08;102652.94;;;12.53;73.17
73748;BME280;62056;52.130;5.428;2023-06-01T06:47:36;102648.22;;;12.65;73.96
73748;BME280;62056;52.130;5.428;2023-06-01T06:50:04;102651.41;;;12.62;71.42
73748;BME280;62056;52.130;5.428;2023-06-01T06:52:31;102648.53;;;12.69;72.88
73748;BME280;62056;52.130;5.428;2023-06-01T06:54:59;102653.97;;;12.84;73.53
73748;BME280;62056;52.130;5.428;2023-06-01T06:57:29;102660.97;;;12.95;73.00
73748;BME280;62056;52.130;5.428;2023-06-01T07:00:02;102653.63;;;13.18;73.49
73748;BME280;62056;52.130;5.428;2023-06-01T07:02:30;102662.00;;;13.32;72.80
73748;BME280;62056;52.130;5.428;2023-06-01T07:04:58;102663.09;;;13.41;72.93
73748;BME280;62056;52.130;5.428;2023-06-01T07:07:29;102664.25;;;13.55;73.04
73748;BME280;62056;52.130;5.428;2023-06-01T07:09:57;102661.91;;;13.74;72.62
73748;BME280;62056;52.130;5.428;2023-06-01T07:12:26;102669.19;;;13.94;73.46
73748;BME280;62056;52.130;5.428;2023-06-01T07:14:53;102663.34;;;14.13;72.79
73748;BME280;62056;52.130;5.428;2023-06-01T07:17:20;102659.31;;;14.26;72.47
73748;BME280;62056;52.130;5.428;2023-06-01T07:19:55;102653.72;;;14.43;72.31
73748;BME280;62056;52.130;5.428;2023-06-01T07:22:24;102655.31;;;14.54;71.20
73748;BME280;62056;52.130;5.428;2023-06-01T07:24:53;102652.13;;;14.67;71.82
73748;BME280;62056;52.130;5.428;2023-06-01T07:27:20;102655.84;;;14.41;65.76
73748;BME280;62056;52.130;5.428;2023-06-01T07:29:47;102664.13;;;14.29;67.41
73748;BME280;62056;52.130;5.428;2023-06-01T07:32:14;102651.31;;;14.36;68.48
73748;BME280;62056;52.130;5.428;2023-06-01T07:34:41;102652.13;;;14.31;66.89
73748;BME280;62056;52.130;5.428;2023-06-01T07:37:08;102657.97;;;14.28;66.72
73748;BME280;62056;52.130;5.428;2023-06-01T07:39:46;102658.53;;;14.15;66.63
73748;BME280;62056;52.130;5.428;2023-06-01T07:42:15;102659.88;;;14.28;65.49
73748;BME280;62056;52.130;5.428;2023-06-01T07:44:45;102658.81;;;14.44;67.46
73748;BME280;62056;52.130;5.428;2023-06-01T07:47:13;102646.75;;;14.62;67.68
73748;BME280;62056;52.130;5.428;2023-06-01T07:49:44;102638.19;;;14.86;67.99
73748;BME280;62056;52.130;5.428;2023-06-01T07:52:22;102651.25;;;15.03;66.08
73748;BME280;62056;52.130;5.428;2023-06-01T07:55:01;102648.56;;;15.13;65.33
73748;BME280;62056;52.130;5.428;2023-06-01T07:58:03;102650.69;;;15.11;65.21
73748;BME280;62056;52.130;5.428;2023-06-01T08:00:34;102652.53;;;15.21;65.50
73748;BME280;62056;52.130;5.428;2023-06-01T08:03:05;102653.31;;;15.31;65.46
73748;BME280;62056;52.130;5.428;2023-06-01T08:05:35;102654.13;;;15.27;62.54
73748;BME280;62056;52.130;5.428;2023-06-01T08:08:05;102648.25;;;15.20;63.24
73748;BME280;62056;52.130;5.428;2023-06-01T08:10:31;102630.59;;;15.13;61.38
73748;BME280;62056;52.130;5.428;2023-06-01T08:13:03;102645.00;;;15.28;64.24
73748;BME280;62056;52.130;5.428;2023-06-01T08:15:31;102638.56;;;15.34;63.99
73748;BME280;62056;52.130;5.428;2023-06-01T08:17:58;102636.78;;;15.64;63.34
73748;BME280;62056;52.130;5.428;2023-06-01T08:20:25;102634.47;;;15.47;62.72
73748;BME280;62056;52.130;5.428;2023-06-01T08:22:53;102639.00;;;15.56;62.69
73748;BME280;62056;52.130;5.428;2023-06-01T08:25:20;102630.06;;;15.71;62.87
73748;BME280;62056;52.130;5.428;2023-06-01T08:27:48;102630.81;;;15.82;62.50
73748;BME280;62056;52.130;5.428;2023-06-01T08:30:16;102637.72;;;15.93;61.93
73748;BME280;62056;52.130;5.428;2023-06-01T08:32:43;102628.84;;;15.98;60.50
73748;BME280;62056;52.130;5.428;2023-06-01T08:35:09;102619.13;;;16.07;61.27
73748;BME280;62056;52.130;5.428;2023-06-01T08:37:38;102614.97;;;16.20;62.51
73748;BME280;62056;52.130;5.428;2023-06-01T08:40:10;102628.28;;;16.35;61.75
73748;BME280;62056;52.130;5.428;2023-06-01T08:42:57;102620.59;;;16.53;59.45
73748;BME280;62056;52.130;5.428;2023-06-01T08:45:25;102622.19;;;16.54;60.24
73748;BME280;62056;52.130;5.428;2023-06-01T08:47:53;102626.13;;;16.37;59.94
73748;BME280;62056;52.130;5.428;2023-06-01T08:50:22;102617.84;;;16.34;59.31
73748;BME280;62056;52.130;5.428;2023-06-01T08:52:49;102625.09;;;16.33;59.04
73748;BME280;62056;52.130;5.428;2023-06-01T08:55:21;102625.13;;;16.28;58.07
73748;BME280;62056;52.130;5.428;2023-06-01T08:57:48;102616.34;;;16.17;59.09
73748;BME280;62056;52.130;5.428;2023-06-01T09:00:16;102633.88;;;16.39;59.00
73748;BME280;62056;52.130;5.428;2023-06-01T09:02:43;102619.16;;;16.36;59.27
73748;BME280;62056;52.130;5.428;2023-06-01T09:05:10;102619.38;;;16.40;58.55
73748;BME280;62056;52.130;5.428;2023-06-01T09:07:38;102622.00;;;16.45;58.95
73748;BME280;62056;52.130;5.428;2023-06-01T09:10:10;102616.78;;;16.59;59.29
73748;BME280;62056;52.130;5.428;2023-06-01T09:12:38;102614.69;;;16.80;59.07
73748;BME280;62056;52.130;5.428;2023-06-01T09:15:20;102613.06;;;16.79;58.24
73748;BME280;62056;52.130;5.428;2023-06-01T09:18:04;102615.75;;;16.79;58.34
73748;BME280;62056;52.130;5.428;2023-06-01T09:20:31;102613.72;;;16.71;57.79
73748;BME280;62056;52.130;5.428;2023-06-01T09:23:00;102621.38;;;16.58;57.38
73748;BME280;62056;52.130;5.428;2023-06-01T09:25:29;102620.25;;;16.35;57.25
73748;BME280;62056;52.130;5.428;2023-06-01T09:27:57;102614.81;;;16.41;57.57
73748;BME280;62056;52.130;5.428;2023-06-01T09:30:36;102604.25;;;16.49;57.18
73748;BME280;62056;52.130;5.428;2023-06-01T09:33:13;102616.69;;;16.40;57.54
73748;BME280;62056;52.130;5.428;2023-06-01T09:35:46;102594.13;;;16.41;57.81
73748;BME280;62056;52.130;5.428;2023-06-01T09:38:21;102593.78;;;16.48;57.83
73748;BME280;62056;52.130;5.428;2023-06-01T09:41:03;102590.69;;;16.65;56.87
73748;BME280;62056;52.130;5.428;2023-06-01T09:43:34;102586.06;;;16.70;57.81
73748;BME280;62056;52.130;5.428;2023-06-01T09:46:08;102594.69;;;16.67;57.11
73748;BME280;62056;52.130;5.428;2023-06-01T09:48:35;102584.81;;;16.87;57.27
73748;BME280;62056;52.130;5.428;2023-06-01T09:51:08;102594.03;;;17.05;56.59
73748;BME280;62056;52.130;5.428;2023-06-01T09:53:47;102584.72;;;16.97;56.31
73748;BME280;62056;52.130;5.428;2023-06-01T09:56:14;102592.03;;;16.91;55.85
73748;BME280;62056;52.130;5.428;2023-06-01T09:58:41;102585.00;;;16.66;56.37
73748;BME280;62056;52.130;5.428;2023-06-01T10:01:08;102586.56;;;16.72;56.88
73748;BME280;62056;52.130;5.428;2023-06-01T10:03:41;102589.53;;;17.00;56.56
73748;BME280;62056;52.130;5.428;2023-06-01T10:06:12;102587.97;;;16.94;54.88
73748;BME280;62056;52.130;5.428;2023-06-01T10:08:41;102583.69;;;16.93;55.76
73748;BME280;62056;52.130;5.428;2023-06-01T10:11:08;102576.25;;;16.85;55.75
73748;BME280;62056;52.130;5.428;2023-06-01T10:13:35;102576.16;;;17.14;55.58
73748;BME280;62056;52.130;5.428;2023-06-01T10:16:03;102580.47;;;17.15;55.67
73748;BME280;62056;52.130;5.428;2023-06-01T10:18:31;102574.31;;;17.33;55.57
73748;BME280;62056;52.130;5.428;2023-06-01T10:20:59;102578.44;;;17.45;54.91
73748;BME280;62056;52.130;5.428;2023-06-01T10:23:26;102585.59;;;17.35;53.54
73748;BME280;62056;52.130;5.428;2023-06-01T10:25:59;102578.72;;;17.24;53.97
73748;BME280;62056;52.130;5.428;2023-06-01T10:28:29;102585.91;;;17.10;54.84
73748;BME280;62056;52.130;5.428;2023-06-01T10:31:38;102583.34;;;17.18;53.89
73748;BME280;62056;52.130;5.428;2023-06-01T10:34:12;102588.84;;;17.32;54.54
73748;BME280;62056;52.130;5.428;2023-06-01T10:39:32;102573.00;;;17.69;53.92
73748;BME280;62056;52.130;5.428;2023-06-01T10:57:35;102576.63;;;17.78;51.97
73748;BME280;62056;52.130;5.428;2023-06-01T11:13:39;102553.81;;;18.08;52.94
73748;BME280;62056;52.130;5.428;2023-06-01T11:18:53;102555.53;;;18.04;52.86
73748;BME280;62056;52.130;5.428;2023-06-01T11:21:40;102552.50;;;17.92;52.50
73748;BME280;62056;52.130;5.428;2023-06-01T11:24:10;102557.88;;;17.92;53.05
73748;BME280;62056;52.130;5.428;2023-06-01T11:26:41;102560.84;;;17.90;52.94
73748;BME280;62056;52.130;5.428;2023-06-01T11:31:46;102562.16;;;17.74;52.97
73748;BME280;62056;52.130;5.428;2023-06-01T11:34:18;102554.31;;;17.77;53.52
73748;BME280;62056;52.130;5.428;2023-06-01T11:36:47;102556.34;;;17.86;53.00
73748;BME280;62056;52.130;5.428;2023-06-01T11:39:22;102553.84;;;17.89;53.13
73748;BME280;62056;52.130;5.428;2023-06-01T11:42:10;102547.69;;;17.89;53.63
73748;BME280;62056;52.130;5.428;2023-06-01T11:44:45;102560.06;;;17.90;54.22
73748;BME280;62056;52.130;5.428;2023-06-01T11:47:13;102551.22;;;18.03;54.04
73748;BME280;62056;52.130;5.428;2023-06-01T11:49:46;102547.84;;;18.11;53.92
73748;BME280;62056;52.130;5.428;2023-06-01T11:52:16;102545.28;;;17.87;54.79
73748;BME280;62056;52.130;5.428;2023-06-01T11:54:43;102548.81;;;18.02;54.80
73748;BME280;62056;52.130;5.428;2023-06-01T11:57:10;102547.81;;;17.97;55.03
73748;BME280;62056;52.130;5.428;2023-06-01T11:59:38;102550.31;;;17.94;55.38
73748;BME280;62056;52.130;5.428;2023-06-01T12:02:19;102555.47;;;17.90;55.58
73748;BME280;62056;52.130;5.428;2023-06-01T12:05:02;102560.75;;;17.76;55.57
73748;BME280;62056;52.130;5.428;2023-06-01T12:07:48;102560.56;;;17.92;55.34
73748;BME280;62056;52.130;5.428;2023-06-01T12:10:19;102567.31;;;17.89;55.13
73748;BME280;62056;52.130;5.428;2023-06-01T12:12:53;102554.75;;;17.85;55.63
73748;BME280;62056;52.130;5.428;2023-06-01T12:15:20;102555.03;;;17.83;55.77
73748;BME280;62056;52.130;5.428;2023-06-01T12:17:54;102565.59;;;17.60;56.51
73748;BME280;62056;52.130;5.428;2023-06-01T12:20:26;102566.91;;;17.63;56.56
73748;BME280;62056;52.130;5.428;2023-06-01T12:22:59;102577.34;;;17.46;56.81
73748;BME280;62056;52.130;5.428;2023-06-01T12:25:30;102584.72;;;17.40;57.09
73748;BME280;62056;52.130;5.428;2023-06-01T12:30:27;102583.47;;;17.32;57.27
73748;BME280;62056;52.130;5.428;2023-06-01T12:32:54;102575.16;;;17.29;57.46
73748;BME280;62056;52.130;5.428;2023-06-01T12:35:21;102583.00;;;17.06;58.09
73748;BME280;62056;52.130;5.428;2023-06-01T12:40:33;102579.09;;;17.17;58.04
73748;BME280;62056;52.130;5.428;2023-06-01T12:43:03;102585.50;;;16.97;58.64
73748;BME280;62056;52.130;5.428;2023-06-01T12:45:39;102582.31;;;16.95;58.54
73748;BME280;62056;52.130;5.428;2023-06-01T12:48:32;102575.00;;;17.01;58.32
73748;BME280;62056;52.130;5.428;2023-06-01T12:51:00;102572.25;;;17.06;58.30
73748;BME280;62056;52.130;5.428;2023-06-01T12:53:30;102569.50;;;17.11;58.45
73748;BME280;62056;52.130;5.428;2023-06-01T12:55:57;102564.53;;;17.18;58.23
73748;BME280;62056;52.130;5.428;2023-06-01T12:58:26;102573.13;;;17.20;57.99
73748;BME280;62056;52.130;5.428;2023-06-01T13:00:57;102570.56;;;17.10;58.46
73748;BME280;62056;52.130;5.428;2023-06-01T13:03:32;102572.25;;;17.06;58.59
73748;BME280;62056;52.130;5.428;2023-06-01T13:06:00;102565.66;;;16.93;58.50
73748;BME280;62056;52.130;5.428;2023-06-01T13:08:31;102576.91;;;16.71;59.82
73748;BME280;62056;52.130;5.428;2023-06-01T13:11:00;102574.75;;;16.73;59.50
73748;BME280;62056;52.130;5.428;2023-06-01T13:13:27;102565.91;;;16.97;59.04
73748;BME280;62056;52.130;5.428;2023-06-01T13:15:54;102571.66;;;17.09;58.49
73748;BME280;62056;52.130;5.428;2023-06-01T13:18:21;102561.84;;;17.18;58.58
73748;BME280;62056;52.130;5.428;2023-06-01T13:20:49;102565.56;;;17.23;58.42
73748;BME280;62056;52.130;5.428;2023-06-01T13:23:16;102567.09;;;17.10;58.40
73748;BME280;62056;52.130;5.428;2023-06-01T13:25:48;102561.91;;;16.94;59.46
73748;BME280;62056;52.130;5.428;2023-06-01T13:28:18;102562.97;;;16.93;59.49
73748;BME280;62056;52.130;5.428;2023-06-01T13:30:48;102562.41;;;16.96;59.70
73748;BME280;62056;52.130;5.428;2023-06-01T13:33:21;102561.78;;;16.81;60.70
73748;BME280;62056;52.130;5.428;2023-06-01T13:35:51;102560.72;;;16.82;60.27
73748;BME280;62056;52.130;5.428;2023-06-01T13:38:17;102572.44;;;16.62;60.95
73748;BME280;62056;52.130;5.428;2023-06-01T13:40:45;102559.91;;;16.52;61.24
73748;BME280;62056;52.130;5.428;2023-06-01T13:43:13;102565.53;;;16.55;60.80
73748;BME280;62056;52.130;5.428;2023-06-01T13:45:40;102560.13;;;16.61;61.23
73748;BME280;62056;52.130;5.428;2023-06-01T13:48:10;102560.00;;;16.71;60.39
73748;BME280;62056;52.130;5.428;2023-06-01T13:50:41;102563.41;;;16.82;59.88
73748;BME280;62056;52.130;5.428;2023-06-01T13:53:08;102551.00;;;16.86;59.68
73748;BME280;62056;52.130;5.428;2023-06-01T13:55:36;102556.53;;;16.94;59.75
73748;BME280;62056;52.130;5.428;2023-06-01T13:58:05;102542.69;;;17.06;59.25